Time;durP1;ratioP1;P1;durP2;ratioP2;P2;SDS_P1;SDS_P2;PMS_P1;PMS_P2;Temp;Humidity;BMP_temperature;BMP_pressure;BME280_temperature;BME280_humidity;BME280_pressure;Samples;Min_cycle;Max_cycle;Signal;HPM_P1;HPM_P2
2021/06/25 00:00:45;;;;;;;;;;;27.20;99.90;;;;;;5118667;27;19912;-75
2021/06/25 00:03:11;;;;;;;;;;;27.20;99.90;;;;;;5128097;27;19917;-74
2021/06/25 00:05:36;;;;;;;;;;;27.20;99.90;;;;;;5129953;27;19915;-74
2021/06/25 00:08:02;;;;;;;;;;;27.20;99.90;;;;;;5131092;27;19946;-73
2021/06/25 00:10:28;;;;;;;;;;;27.20;99.90;;;;;;5124451;27;19919;-74
2021/06/25 00:12:53;;;;;;;;;;;27.10;99.90;;;;;;5119266;27;20037;-74
2021/06/25 00:15:19;;;;;;;;;;;27.10;99.90;;;;;;5112452;27;20344;-74
2021/06/25 00:17:45;;;;;;;;;;;27.00;99.90;;;;;;5107150;27;19955;-74
2021/06/25 00:20:13;;;;;;;;;;;27.00;99.90;;;;;;5118298;27;19922;-73
2021/06/25 00:22:39;;;;;;;;;;;27.00;99.90;;;;;;5113348;27;19988;-74
2021/06/25 00:25:05;;;;;;;;;;;26.90;99.90;;;;;;5115840;27;20351;-73
2021/06/25 00:27:30;;;;;;;;;;;26.90;99.90;;;;;;5103563;28;19928;-74
2021/06/25 00:29:56;;;;;;;;;;;26.80;99.90;;;;;;5112789;27;19920;-74
2021/06/25 00:32:21;;;;;;;;;;;26.70;99.90;;;;;;5109953;27;19916;-74
2021/06/25 00:34:47;;;;;;;;;;;26.70;99.90;;;;;;5110626;27;20360;-74
2021/06/25 00:37:12;;;;;;;;;;;26.70;99.90;;;;;;5106852;27;19956;-73
2021/06/25 00:39:38;;;;;;;;;;;26.70;99.90;;;;;;5116812;27;19912;-74
2021/06/25 00:42:06;;;;;;;;;;;26.60;99.90;;;;;;5111637;28;20365;-73
2021/06/25 00:44:31;;;;;;;;;;;26.50;99.90;;;;;;5115300;27;19919;-73
2021/06/25 00:46:57;;;;;;;;;;;26.50;99.90;;;;;;5111819;27;19916;-74
2021/06/25 00:49:23;;;;;;;;;;;26.50;99.90;;;;;;5110296;28;19919;-75
2021/06/25 00:51:48;;;;;;;;;;;26.40;99.90;;;;;;5114542;28;20011;-76
2021/06/25 00:54:14;;;;;;;;;;;26.40;99.90;;;;;;5116713;27;20006;-74
2021/06/25 00:56:40;;;;;;;;;;;26.40;99.90;;;;;;5110055;27;19919;-74
2021/06/25 00:59:06;;;;;;;;;;;26.40;99.90;;;;;;5096445;28;19920;-74
2021/06/25 01:01:32;;;;;;;;;;;26.20;99.90;;;;;;5116672;27;19912;-74
2021/06/25 01:03:57;;;;;;;;;;;26.20;99.90;;;;;;5117565;27;20424;-74
2021/06/25 01:06:24;;;;;;;;;;;26.20;99.90;;;;;;5122440;27;19919;-74
2021/06/25 01:08:49;;;;;;;;;;;26.10;99.90;;;;;;5122813;27;20006;-73
2021/06/25 01:11:15;;;;;;;;;;;26.00;99.90;;;;;;5115786;27;20002;-73
2021/06/25 01:13:41;;;;;;;;;;;26.00;99.90;;;;;;5113746;27;19999;-73
2021/06/25 01:16:06;;;;;;;;;;;26.00;99.90;;;;;;5116907;27;20349;-73
2021/06/25 01:18:32;;;;;;;;;;;26.00;99.90;;;;;;5114859;27;19911;-73
2021/06/25 01:20:59;;;;;;;;;;;25.90;99.90;;;;;;5100036;28;19969;-74
2021/06/25 01:23:26;;;;;;;;;;;25.90;99.90;;;;;;5114667;27;20018;-74
2021/06/25 01:25:51;;;;;;;;;;;25.80;99.90;;;;;;5115351;27;20002;-74
2021/06/25 01:28:17;;;;;;;;;;;25.70;99.90;;;;;;5113714;27;20003;-74
2021/06/25 01:30:44;;;;;;;;;;;25.70;99.90;;;;;;5122785;27;19955;-73
2021/06/25 01:33:14;;;;;;;;;;;25.70;99.90;;;;;;5126054;27;19916;-74
2021/06/25 01:35:40;;;;;;;;;;;25.60;99.90;;;;;;5107187;27;19912;-74
2021/06/25 01:38:06;;;;;;;;;;;25.50;99.90;;;;;;5121102;27;19958;-74
2021/06/25 01:40:32;;;;;;;;;;;25.40;99.90;;;;;;5121855;27;20280;-74
2021/06/25 01:43:00;;;;;;;;;;;25.30;99.90;;;;;;5111762;27;19916;-74
2021/06/25 01:45:28;;;;;;;;;;;25.30;99.90;;;;;;5107331;27;19916;-74
2021/06/25 01:47:54;;;;;;;;;;;25.30;99.90;;;;;;5116120;27;19919;-74
2021/06/25 01:50:24;;;;;;;;;;;25.40;99.90;;;;;;5119831;27;19907;-73
2021/06/25 01:52:49;;;;;;;;;;;25.60;99.90;;;;;;5124732;27;19911;-73
2021/06/25 01:55:15;;;;;;;;;;;25.60;99.90;;;;;;5081896;28;20477;-73
2021/06/25 01:57:41;;;;;;;;;;;25.60;99.90;;;;;;5115371;27;19955;-74
2021/06/25 02:00:07;;;;;;;;;;;25.60;99.90;;;;;;5120254;27;19918;-75
2021/06/25 02:02:33;;;;;;;;;;;25.50;99.90;;;;;;5115607;27;19916;-73
2021/06/25 02:04:59;;;;;;;;;;;25.50;99.90;;;;;;5111410;27;19995;-73
2021/06/25 02:07:24;;;;;;;;;;;25.40;99.90;;;;;;5116370;27;20369;-74
2021/06/25 02:09:50;;;;;;;;;;;25.40;99.90;;;;;;5107616;27;19908;-74
2021/06/25 02:12:16;;;;;;;;;;;25.30;99.90;;;;;;5116859;27;20001;-74
2021/06/25 02:14:42;;;;;;;;;;;25.30;99.90;;;;;;5103300;28;19918;-74
2021/06/25 02:17:08;;;;;;;;;;;25.30;99.90;;;;;;5113752;27;20384;-74
2021/06/25 02:19:33;;;;;;;;;;;25.20;99.90;;;;;;5114778;27;19923;-74
2021/06/25 02:21:59;;;;;;;;;;;25.20;99.90;;;;;;5132598;27;19907;-74
2021/06/25 02:24:25;;;;;;;;;;;25.20;99.90;;;;;;5109082;27;20002;-74
2021/06/25 02:26:50;;;;;;;;;;;25.20;99.90;;;;;;5119455;27;19911;-74
2021/06/25 02:29:16;;;;;;;;;;;25.20;99.90;;;;;;5114154;27;20120;-74
2021/06/25 02:31:41;;;;;;;;;;;25.10;99.90;;;;;;5118850;27;19999;-74
2021/06/25 02:34:07;;;;;;;;;;;25.00;99.90;;;;;;5117273;27;20018;-74
2021/06/25 02:36:33;;;;;;;;;;;24.90;99.90;;;;;;5099146;27;19911;-74
2021/06/25 02:38:58;;;;;;;;;;;24.90;99.90;;;;;;5121116;27;20289;-74
2021/06/25 02:41:24;;;;;;;;;;;24.80;99.90;;;;;;5123912;27;19968;-74
2021/06/25 02:43:49;;;;;;;;;;;24.80;99.90;;;;;;5118393;27;19966;-74
2021/06/25 02:46:15;;;;;;;;;;;24.80;99.90;;;;;;5102616;28;19923;-74
2021/06/25 02:48:41;;;;;;;;;;;24.70;99.90;;;;;;5114048;27;19911;-74
2021/06/25 02:51:07;;;;;;;;;;;24.80;99.90;;;;;;5123322;27;19971;-74
2021/06/25 02:53:32;;;;;;;;;;;24.80;99.90;;;;;;5111584;27;19911;-74
2021/06/25 02:55:58;;;;;;;;;;;24.70;99.90;;;;;;5092459;27;19967;-74
2021/06/25 02:58:24;;;;;;;;;;;24.70;99.90;;;;;;5107122;27;20270;-74
2021/06/25 03:00:50;;;;;;;;;;;24.60;99.90;;;;;;5117073;27;20399;-74
2021/06/25 03:03:16;;;;;;;;;;;24.60;99.90;;;;;;5118943;27;20361;-75
2021/06/25 03:05:42;;;;;;;;;;;24.50;99.90;;;;;;5113764;27;19962;-74
2021/06/25 03:08:08;;;;;;;;;;;24.50;99.90;;;;;;5112530;28;19951;-74
2021/06/25 03:10:34;;;;;;;;;;;24.50;99.90;;;;;;5107239;28;19911;-74
2021/06/25 03:12:59;;;;;;;;;;;24.50;99.90;;;;;;5112529;27;19931;-74
2021/06/25 03:15:25;;;;;;;;;;;24.40;99.90;;;;;;5110555;27;19940;-74
2021/06/25 03:17:51;;;;;;;;;;;24.30;99.90;;;;;;5106210;28;19919;-74
2021/06/25 03:20:16;;;;;;;;;;;24.40;99.90;;;;;;5118166;27;20003;-74
2021/06/25 03:22:42;;;;;;;;;;;24.30;99.90;;;;;;5104092;28;19920;-74
2021/06/25 03:25:08;;;;;;;;;;;24.30;99.90;;;;;;5109785;28;20315;-74
2021/06/25 03:27:34;;;;;;;;;;;24.10;99.90;;;;;;5111525;28;19994;-74
2021/06/25 03:29:59;;;;;;;;;;;24.10;99.90;;;;;;5119005;28;20381;-74
2021/06/25 03:32:25;;;;;;;;;;;24.10;99.90;;;;;;5109032;28;19957;-74
2021/06/25 03:34:51;;;;;;;;;;;24.10;99.90;;;;;;5109014;28;19912;-74
2021/06/25 03:37:17;;;;;;;;;;;24.20;99.90;;;;;;5124966;28;19922;-73
2021/06/25 03:39:42;;;;;;;;;;;24.20;99.90;;;;;;5118234;28;20318;-74
2021/06/25 03:42:08;;;;;;;;;;;24.20;99.90;;;;;;5113552;27;19930;-73
2021/06/25 03:44:34;;;;;;;;;;;24.10;99.90;;;;;;5113876;28;19984;-74
2021/06/25 03:46:59;;;;;;;;;;;24.00;99.90;;;;;;5108531;28;19918;-72
2021/06/25 03:49:25;;;;;;;;;;;23.80;99.90;;;;;;5110974;28;20351;-74
2021/06/25 03:51:51;;;;;;;;;;;23.60;99.90;;;;;;5107155;28;19918;-74
2021/06/25 03:54:16;;;;;;;;;;;23.40;99.90;;;;;;5110550;28;20384;-74
2021/06/25 03:56:43;;;;;;;;;;;23.30;99.90;;;;;;5112897;28;19957;-74
2021/06/25 03:59:09;;;;;;;;;;;23.30;99.90;;;;;;5094219;28;19959;-74
2021/06/25 04:01:34;;;;;;;;;;;23.30;99.90;;;;;;5110340;28;19947;-74
2021/06/25 04:04:00;;;;;;;;;;;23.40;99.90;;;;;;5113272;28;19923;-74
2021/06/25 04:06:25;;;;;;;;;;;23.40;99.90;;;;;;5118181;28;19912;-74
2021/06/25 04:08:51;;;;;;;;;;;23.50;99.90;;;;;;5117039;28;20305;-74
2021/06/25 04:11:20;;;;;;;;;;;23.50;99.90;;;;;;5117730;28;19918;-74
2021/06/25 04:13:46;;;;;;;;;;;23.50;99.90;;;;;;5109326;28;20304;-74
2021/06/25 04:16:12;;;;;;;;;;;23.60;99.90;;;;;;5105446;27;19971;-74
2021/06/25 04:18:38;;;;;;;;;;;23.70;99.90;;;;;;5111794;27;19938;-74
2021/06/25 04:21:04;;;;;;;;;;;23.90;99.90;;;;;;5120836;27;19912;-74
2021/06/25 04:23:29;;;;;;;;;;;24.00;99.90;;;;;;5112381;27;19935;-75
2021/06/25 04:25:55;;;;;;;;;;;24.10;99.90;;;;;;5117762;27;19912;-74
2021/06/25 04:28:21;;;;;;;;;;;24.10;99.90;;;;;;5116809;27;19920;-74
2021/06/25 04:30:46;;;;;;;;;;;24.20;99.90;;;;;;5122483;27;20132;-75
2021/06/25 04:33:13;;;;;;;;;;;24.20;99.90;;;;;;5116567;27;19912;-72
2021/06/25 04:35:40;;;;;;;;;;;24.10;99.90;;;;;;5122346;27;20015;-73
2021/06/25 04:38:06;;;;;;;;;;;24.20;99.90;;;;;;5101433;27;19965;-73
2021/06/25 04:40:32;;;;;;;;;;;24.20;99.90;;;;;;5121737;27;19911;-73
2021/06/25 04:42:58;;;;;;;;;;;24.20;99.90;;;;;;5113895;27;20003;-73
2021/06/25 04:45:24;;;;;;;;;;;24.40;99.90;;;;;;5121378;27;19907;-74
2021/06/25 04:47:49;;;;;;;;;;;24.40;99.90;;;;;;5109430;28;20273;-74
2021/06/25 04:50:15;;;;;;;;;;;24.30;99.90;;;;;;5110290;28;20373;-74
2021/06/25 04:52:41;;;;;;;;;;;24.40;99.90;;;;;;5109000;27;20010;-73
2021/06/25 04:55:07;;;;;;;;;;;24.40;99.90;;;;;;5108750;27;19919;-74
2021/06/25 04:57:33;;;;;;;;;;;24.40;99.90;;;;;;5114224;27;19908;-73
2021/06/25 04:59:58;;;;;;;;;;;24.50;99.90;;;;;;5122493;27;20049;-72
2021/06/25 05:02:24;;;;;;;;;;;24.60;99.90;;;;;;5114554;27;20284;-73
2021/06/25 05:04:49;;;;;;;;;;;24.70;99.90;;;;;;5122176;27;19992;-73
2021/06/25 05:07:15;;;;;;;;;;;24.70;99.90;;;;;;5107802;27;19954;-68
2021/06/25 05:09:41;;;;;;;;;;;24.80;99.90;;;;;;5105389;28;19915;-69
2021/06/25 05:12:06;;;;;;;;;;;24.70;99.90;;;;;;5100858;28;20300;-68
2021/06/25 05:14:32;;;;;;;;;;;24.70;99.90;;;;;;5104356;27;19912;-68
2021/06/25 05:16:57;;;;;;;;;;;24.80;99.90;;;;;;5115471;27;19912;-67
2021/06/25 05:19:23;;;;;;;;;;;24.90;99.90;;;;;;5115316;27;20372;-64
2021/06/25 05:21:49;;;;;;;;;;;24.90;99.90;;;;;;5097144;28;19935;-59
2021/06/25 05:24:14;;;;;;;;;;;25.10;99.90;;;;;;5123246;27;19922;-57
2021/06/25 05:26:40;;;;;;;;;;;25.20;99.90;;;;;;5120214;27;19915;-58
2021/06/25 05:29:05;;;;;;;;;;;25.30;99.90;;;;;;5128895;27;19922;-59
2021/06/25 05:31:31;;;;;;;;;;;25.40;99.90;;;;;;5119103;27;19911;-59
2021/06/25 05:33:57;;;;;;;;;;;25.40;99.90;;;;;;5119935;27;19925;-57
2021/06/25 05:36:23;;;;;;;;;;;25.40;99.90;;;;;;5118927;27;19911;-60
2021/06/25 05:38:49;;;;;;;;;;;25.50;99.90;;;;;;5129823;27;20266;-58
2021/06/25 05:41:15;;;;;;;;;;;25.70;99.90;;;;;;5109787;28;19912;-56
2021/06/25 05:43:42;;;;;;;;;;;25.80;99.90;;;;;;5121644;27;19918;-56
2021/06/25 05:46:08;;;;;;;;;;;25.80;99.90;;;;;;5117167;27;19947;-58
2021/06/25 05:48:33;;;;;;;;;;;25.80;99.90;;;;;;5106603;27;19918;-57
2021/06/25 05:50:59;;;;;;;;;;;25.70;99.90;;;;;;5117250;27;19908;-59
2021/06/25 05:53:25;;;;;;;;;;;25.70;99.90;;;;;;5124059;27;19953;-56
2021/06/25 05:55:51;;;;;;;;;;;25.70;99.90;;;;;;5116256;27;19912;-66
2021/06/25 05:58:17;;;;;;;;;;;26.00;99.90;;;;;;5104494;28;19912;-66
2021/06/25 06:00:42;;;;;;;;;;;26.20;99.90;;;;;;5117262;27;19912;-66
2021/06/25 06:03:08;;;;;;;;;;;26.30;99.90;;;;;;5119555;27;19922;-66
2021/06/25 06:05:34;;;;;;;;;;;26.40;99.90;;;;;;5114692;27;19919;-65
2021/06/25 06:08:00;;;;;;;;;;;26.40;99.90;;;;;;5119124;27;19907;-66
2021/06/25 06:10:25;;;;;;;;;;;26.50;99.90;;;;;;5091935;28;19942;-70
2021/06/25 06:12:51;;;;;;;;;;;26.40;99.90;;;;;;5129343;27;19907;-70
2021/06/25 06:15:17;;;;;;;;;;;26.40;99.90;;;;;;5107288;27;20064;-70
2021/06/25 06:17:46;;;;;;;;;;;26.30;99.90;;;;;;5099583;27;19911;-69
2021/06/25 06:20:17;;;;;;;;;;;26.30;99.90;;;;;;5120417;27;19945;-69
2021/06/25 06:31:19;;;;;;;;;;;26.40;99.90;;;;;;5122120;27;19918;-69
2021/06/25 06:33:49;;;;;;;;;;;26.40;99.90;;;;;;5110352;27;20373;-69
2021/06/25 06:36:22;;;;;;;;;;;26.20;99.90;;;;;;5119778;27;19915;-69
2021/06/25 06:38:48;;;;;;;;;;;26.10;99.90;;;;;;5110617;28;20349;-68
2021/06/25 06:41:14;;;;;;;;;;;25.90;99.90;;;;;;5109724;27;19919;-69
2021/06/25 06:43:41;;;;;;;;;;;25.90;99.90;;;;;;5130600;27;19922;-69
2021/06/25 06:46:09;;;;;;;;;;;25.80;99.90;;;;;;5090779;27;20014;-68
2021/06/25 06:48:35;;;;;;;;;;;25.80;99.90;;;;;;5105513;27;19916;-66
2021/06/25 06:51:01;;;;;;;;;;;25.80;99.90;;;;;;5114743;27;19922;-66
2021/06/25 06:53:26;;;;;;;;;;;25.80;99.90;;;;;;5121981;27;20002;-69
2021/06/25 06:55:52;;;;;;;;;;;25.90;99.90;;;;;;5114531;27;19918;-69
2021/06/25 06:58:17;;;;;;;;;;;25.90;99.90;;;;;;5125387;27;19915;-70
2021/06/25 07:00:43;;;;;;;;;;;26.00;99.90;;;;;;5111605;27;20313;-69
2021/06/25 07:03:08;;;;;;;;;;;25.90;99.90;;;;;;5104328;27;19911;-69
2021/06/25 07:05:34;;;;;;;;;;;25.90;99.90;;;;;;5111178;27;19912;-68
2021/06/25 07:07:59;;;;;;;;;;;26.00;99.90;;;;;;5123358;27;19960;-69
2021/06/25 07:10:25;;;;;;;;;;;26.00;99.90;;;;;;5120074;27;20326;-68
2021/06/25 07:12:50;;;;;;;;;;;26.00;99.90;;;;;;5117060;28;19908;-71
2021/06/25 07:15:16;;;;;;;;;;;26.00;99.90;;;;;;5110551;27;19911;-68
2021/06/25 07:17:42;;;;;;;;;;;25.90;99.90;;;;;;5111160;28;19912;-67
2021/06/25 07:20:07;;;;;;;;;;;25.90;99.90;;;;;;5109045;28;19919;-68
2021/06/25 07:22:33;;;;;;;;;;;26.00;99.90;;;;;;5113285;28;20428;-72
2021/06/25 07:24:59;;;;;;;;;;;26.00;99.90;;;;;;5111996;28;19919;-70
2021/06/25 07:27:25;;;;;;;;;;;26.00;99.90;;;;;;5130505;28;20016;-68
2021/06/25 07:29:50;;;;;;;;;;;26.00;99.90;;;;;;5113469;27;19912;-68
2021/06/25 07:32:16;;;;;;;;;;;25.90;99.90;;;;;;5116988;28;19951;-68
2021/06/25 07:34:42;;;;;;;;;;;25.80;99.90;;;;;;5103349;28;19912;-69
2021/06/25 07:37:08;;;;;;;;;;;25.70;99.90;;;;;;5120819;28;19954;-74
2021/06/25 07:39:33;;;;;;;;;;;25.80;99.90;;;;;;5113061;28;19939;-71
2021/06/25 07:41:59;;;;;;;;;;;25.90;99.90;;;;;;5100049;28;19920;-69
2021/06/25 07:44:24;;;;;;;;;;;25.90;99.90;;;;;;5110026;28;20286;-69
2021/06/25 07:46:50;;;;;;;;;;;26.00;99.90;;;;;;5112094;28;19911;-74
2021/06/25 07:49:15;;;;;;;;;;;26.10;99.90;;;;;;5109152;28;21526;-68
2021/06/25 07:51:41;;;;;;;;;;;26.00;99.90;;;;;;5110451;28;19973;-68
2021/06/25 07:54:07;;;;;;;;;;;26.00;99.90;;;;;;5114272;28;20171;-68
2021/06/25 07:56:32;;;;;;;;;;;26.10;99.90;;;;;;5114275;28;19994;-72
2021/06/25 07:58:58;;;;;;;;;;;26.20;99.90;;;;;;5115810;27;19916;-67
2021/06/25 08:01:25;;;;;;;;;;;26.30;99.90;;;;;;5111907;28;19972;-68
2021/06/25 08:03:51;;;;;;;;;;;26.30;99.90;;;;;;5117382;27;19912;-70
2021/06/25 08:06:16;;;;;;;;;;;26.40;99.90;;;;;;5117790;27;20113;-69
2021/06/25 08:08:42;;;;;;;;;;;26.40;99.90;;;;;;5107442;27;19908;-67
2021/06/25 08:11:07;;;;;;;;;;;26.30;99.90;;;;;;5113710;28;19915;-67
2021/06/25 08:13:33;;;;;;;;;;;26.20;99.90;;;;;;5120248;27;20379;-70
2021/06/25 08:15:59;;;;;;;;;;;26.10;99.90;;;;;;5117952;27;19912;-68
2021/06/25 08:18:24;;;;;;;;;;;26.00;99.90;;;;;;5108643;27;19916;-70
2021/06/25 08:20:50;;;;;;;;;;;26.00;99.90;;;;;;5118795;27;19912;-69
2021/06/25 08:23:16;;;;;;;;;;;25.90;99.90;;;;;;5114306;28;20002;-71
2021/06/25 08:25:41;;;;;;;;;;;26.00;99.90;;;;;;5117319;27;20380;-70
2021/06/25 08:28:07;;;;;;;;;;;26.00;99.90;;;;;;5122031;27;19916;-72
2021/06/25 08:30:33;;;;;;;;;;;26.10;99.90;;;;;;5118066;27;19968;-70
2021/06/25 08:32:59;;;;;;;;;;;26.10;99.90;;;;;;5117229;27;19969;-70
2021/06/25 08:35:25;;;;;;;;;;;26.10;99.90;;;;;;5121511;27;20297;-71
2021/06/25 08:37:50;;;;;;;;;;;26.00;99.90;;;;;;5122875;27;19915;-69
2021/06/25 08:40:17;;;;;;;;;;;26.10;99.90;;;;;;5125762;27;19908;-69
2021/06/25 08:42:42;;;;;;;;;;;25.90;99.90;;;;;;5111996;27;19923;-69
2021/06/25 08:45:09;;;;;;;;;;;26.00;99.90;;;;;;5120739;27;20277;-70
2021/06/25 08:47:41;;;;;;;;;;;26.10;99.90;;;;;;5110654;27;19916;-74
2021/06/25 08:50:11;;;;;;;;;;;26.10;99.90;;;;;;5127452;27;19912;-71
2021/06/25 08:52:37;;;;;;;;;;;26.20;99.90;;;;;;5126152;27;19914;-71
2021/06/25 08:55:03;;;;;;;;;;;26.30;99.90;;;;;;5108268;27;19908;-69
2021/06/25 08:57:31;;;;;;;;;;;26.30;99.90;;;;;;5117087;27;19912;-73
2021/06/25 08:59:57;;;;;;;;;;;26.20;99.90;;;;;;5103366;27;19919;-70
2021/06/25 09:02:22;;;;;;;;;;;26.10;99.90;;;;;;5114435;27;20373;-71
2021/06/25 09:04:48;;;;;;;;;;;26.20;99.90;;;;;;5115532;27;20396;-74
2021/06/25 09:07:14;;;;;;;;;;;26.30;99.90;;;;;;5120765;27;19912;-71
2021/06/25 09:09:43;;;;;;;;;;;26.40;99.90;;;;;;5127975;27;19919;-73
2021/06/25 09:12:10;;;;;;;;;;;26.20;99.90;;;;;;5124705;28;19940;-71
2021/06/25 09:14:54;;;;;;;;;;;26.20;99.90;;;;;;5143650;27;19964;-72
2021/06/25 09:17:20;;;;;;;;;;;26.20;99.90;;;;;;5123963;28;19939;-71
2021/06/25 09:19:45;;;;;;;;;;;26.20;99.90;;;;;;5129552;28;19920;-70
2021/06/25 09:22:11;;;;;;;;;;;26.40;99.90;;;;;;5142485;27;19915;-71
2021/06/25 09:24:37;;;;;;;;;;;26.40;99.90;;;;;;5125220;28;19920;-71
2021/06/25 09:27:03;;;;;;;;;;;26.50;99.90;;;;;;5143477;27;19925;-71
2021/06/25 09:29:34;;;;;;;;;;;26.60;99.90;;;;;;5130523;28;19918;-72
2021/06/25 09:32:10;;;;;;;;;;;26.60;99.90;;;;;;5139485;27;19911;-71
2021/06/25 09:34:43;;;;;;;;;;;26.60;99.90;;;;;;5133448;27;19977;-70
2021/06/25 09:37:11;;;;;;;;;;;26.40;99.90;;;;;;5150361;27;19908;-71
2021/06/25 09:39:41;;;;;;;;;;;26.50;99.90;;;;;;5140613;27;19960;-70
2021/06/25 09:42:14;;;;;;;;;;;26.60;99.90;;;;;;5141140;27;20277;-71
2021/06/25 09:44:40;;;;;;;;;;;26.70;99.90;;;;;;5129195;27;19916;-71
2021/06/25 09:47:06;;;;;;;;;;;26.70;99.90;;;;;;5128303;27;19907;-71
2021/06/25 09:49:32;;;;;;;;;;;26.70;99.90;;;;;;5096748;28;19913;-71
2021/06/25 09:52:00;;;;;;;;;;;26.70;99.90;;;;;;5121773;27;19926;-70
2021/06/25 09:54:26;;;;;;;;;;;26.60;99.90;;;;;;5106571;27;19911;-72
2021/06/25 09:57:16;;;;;;;;;;;26.60;99.90;;;;;;5121572;27;19907;-70
2021/06/25 10:02:19;;;;;;;;;;;26.60;99.90;;;;;;5099808;27;20436;-71
2021/06/25 10:04:46;;;;;;;;;;;26.60;99.90;;;;;;5119923;27;20007;-72
2021/06/25 10:07:16;;;;;;;;;;;26.70;99.90;;;;;;5109354;27;19915;-72
2021/06/25 10:09:42;;;;;;;;;;;26.90;99.90;;;;;;5123314;27;19911;-75
2021/06/25 10:12:12;;;;;;;;;;;27.10;99.90;;;;;;5130338;27;19911;-71
2021/06/25 10:14:38;;;;;;;;;;;27.20;99.90;;;;;;5109862;27;20015;-71
2021/06/25 10:17:09;;;;;;;;;;;27.10;99.90;;;;;;5115961;27;19915;-72
2021/06/25 10:19:42;;;;;;;;;;;27.20;99.90;;;;;;5114961;27;19915;-71
2021/06/25 10:22:08;;;;;;;;;;;27.20;99.90;;;;;;5116850;27;20015;-72
2021/06/25 10:24:34;;;;;;;;;;;27.20;99.90;;;;;;5116899;27;20003;-71
2021/06/25 10:27:01;;;;;;;;;;;27.20;99.90;;;;;;5106292;27;20407;-71
2021/06/25 10:29:27;;;;;;;;;;;27.20;99.90;;;;;;5116883;27;19962;-71
2021/06/25 10:31:52;;;;;;;;;;;27.20;99.90;;;;;;5118170;27;19915;-72
2021/06/25 10:34:18;;;;;;;;;;;27.20;99.90;;;;;;5119333;27;19980;-72
2021/06/25 10:36:44;;;;;;;;;;;27.20;99.90;;;;;;5112627;28;19908;-71
2021/06/25 10:39:10;;;;;;;;;;;27.20;99.90;;;;;;5108278;27;20417;-71
2021/06/25 10:41:52;;;;;;;;;;;27.10;99.90;;;;;;5115991;27;19919;-72
2021/06/25 10:44:36;;;;;;;;;;;27.10;99.90;;;;;;5114176;27;19926;-73
2021/06/25 10:47:20;;;;;;;;;;;27.20;99.90;;;;;;5110916;27;19912;-71
2021/06/25 10:50:13;;;;;;;;;;;27.30;99.90;;;;;;5102901;27;19928;-72
2021/06/25 10:52:40;;;;;;;;;;;27.20;99.90;;;;;;5116795;27;19912;-71
2021/06/25 10:55:18;;;;;;;;;;;27.30;99.90;;;;;;5104100;27;19912;-72
2021/06/25 10:57:49;;;;;;;;;;;27.50;99.90;;;;;;5107866;27;19912;-72
2021/06/25 11:00:23;;;;;;;;;;;27.60;99.90;;;;;;5115385;27;19916;-71
2021/06/25 11:02:48;;;;;;;;;;;27.70;99.90;;;;;;5117616;27;20285;-71
2021/06/25 11:05:31;;;;;;;;;;;27.90;99.90;;;;;;5110694;27;19919;-72
2021/06/25 11:07:57;;;;;;;;;;;28.00;99.90;;;;;;5119918;27;19912;-73
2021/06/25 11:10:23;;;;;;;;;;;28.20;99.90;;;;;;5108098;27;19911;-72
2021/06/25 11:12:50;;;;;;;;;;;28.20;99.90;;;;;;5116105;27;19911;-72
2021/06/25 11:15:17;;;;;;;;;;;28.00;99.90;;;;;;5116909;27;19919;-72
2021/06/25 11:17:50;;;;;;;;;;;28.00;99.90;;;;;;5107395;28;20323;-71
2021/06/25 11:20:26;;;;;;;;;;;27.80;99.90;;;;;;5119897;27;20006;-72
2021/06/25 11:22:53;;;;;;;;;;;27.70;99.90;;;;;;5110444;28;19922;-72
2021/06/25 11:25:37;;;;;;;;;;;27.80;99.90;;;;;;5113303;27;19912;-73
2021/06/25 11:28:07;;;;;;;;;;;27.80;99.90;;;;;;5124522;27;20441;-73
2021/06/25 11:30:51;;;;;;;;;;;27.70;99.90;;;;;;5123098;27;19937;-71
2021/06/25 11:33:23;;;;;;;;;;;27.50;99.90;;;;;;5119251;27;19912;-70
2021/06/25 11:35:48;;;;;;;;;;;27.50;99.90;;;;;;5113509;27;20068;-71
2021/06/25 11:38:14;;;;;;;;;;;27.60;99.90;;;;;;5128375;27;20438;-70
2021/06/25 11:40:49;;;;;;;;;;;27.50;99.90;;;;;;5091634;28;19993;-71
2021/06/25 11:43:15;;;;;;;;;;;27.20;99.90;;;;;;5121948;27;19911;-73
2021/06/25 11:45:45;;;;;;;;;;;27.20;99.90;;;;;;5120043;27;20362;-72
2021/06/25 11:48:11;;;;;;;;;;;27.20;99.90;;;;;;5109793;27;19916;-72
2021/06/25 11:50:38;;;;;;;;;;;27.30;99.90;;;;;;5119089;27;19912;-71
2021/06/25 11:53:04;;;;;;;;;;;27.20;99.90;;;;;;5135509;27;19907;-73
2021/06/25 11:55:30;;;;;;;;;;;27.20;99.90;;;;;;5129215;27;19919;-73
2021/06/25 11:57:56;;;;;;;;;;;27.20;99.90;;;;;;5139188;27;19911;-71
2021/06/25 12:00:22;;;;;;;;;;;27.20;99.90;;;;;;5127539;27;19938;-72
2021/06/25 12:02:49;;;;;;;;;;;27.30;99.90;;;;;;5124038;27;19920;-72
2021/06/25 12:05:21;;;;;;;;;;;27.40;99.90;;;;;;5116936;27;19918;-74
2021/06/25 12:08:00;;;;;;;;;;;27.20;99.90;;;;;;5124205;27;19998;-72
2021/06/25 12:10:25;;;;;;;;;;;27.10;99.90;;;;;;5125289;27;19912;-75
2021/06/25 12:12:55;;;;;;;;;;;27.10;99.90;;;;;;5132256;27;20022;-73
2021/06/25 12:15:21;;;;;;;;;;;27.00;99.90;;;;;;5123882;27;19919;-72
2021/06/25 12:17:47;;;;;;;;;;;26.80;99.90;;;;;;5122087;27;19911;-72
2021/06/25 12:20:13;;;;;;;;;;;26.90;99.90;;;;;;5126883;27;20289;-72
2021/06/25 12:22:46;;;;;;;;;;;26.90;99.90;;;;;;5124034;27;19918;-72
2021/06/25 12:25:11;;;;;;;;;;;27.00;99.90;;;;;;5128609;27;20396;-72
2021/06/25 12:27:38;;;;;;;;;;;27.00;99.90;;;;;;5117758;28;19923;-73
2021/06/25 12:30:09;;;;;;;;;;;27.00;99.90;;;;;;5120964;27;19918;-73
2021/06/25 12:32:35;;;;;;;;;;;26.90;99.90;;;;;;5116454;27;19915;-74
2021/06/25 12:35:00;;;;;;;;;;;26.80;99.90;;;;;;5129822;27;20379;-74
2021/06/25 12:37:43;;;;;;;;;;;26.80;99.90;;;;;;5124483;27;19911;-74
2021/06/25 12:40:09;;;;;;;;;;;26.70;99.90;;;;;;5114790;27;19912;-75
2021/06/25 12:42:34;;;;;;;;;;;26.60;99.90;;;;;;5118039;27;19946;-75
2021/06/25 12:45:00;;;;;;;;;;;26.60;99.90;;;;;;5126393;27;19930;-75
2021/06/25 12:47:29;;;;;;;;;;;26.60;99.90;;;;;;5122574;27;20018;-75
2021/06/25 12:49:55;;;;;;;;;;;26.70;99.90;;;;;;5111724;27;20002;-76
2021/06/25 12:52:21;;;;;;;;;;;26.80;99.90;;;;;;5114854;27;20026;-74
2021/06/25 12:54:49;;;;;;;;;;;26.80;99.90;;;;;;5114939;27;19919;-74
2021/06/25 12:57:15;;;;;;;;;;;26.70;99.90;;;;;;5114887;27;19912;-74
2021/06/25 12:59:40;;;;;;;;;;;26.80;99.90;;;;;;5109628;27;19965;-74
2021/06/25 13:02:06;;;;;;;;;;;26.70;99.90;;;;;;5112527;27;20296;-74
2021/06/25 13:04:32;;;;;;;;;;;26.80;99.90;;;;;;5095497;28;19980;-74
2021/06/25 13:07:07;;;;;;;;;;;27.00;99.90;;;;;;5107736;27;19974;-73
2021/06/25 13:09:35;;;;;;;;;;;27.20;99.90;;;;;;5125044;27;19915;-75
2021/06/25 13:12:11;;;;;;;;;;;27.20;99.90;;;;;;5107645;27;19934;-74
2021/06/25 13:14:43;;;;;;;;;;;27.10;99.90;;;;;;5112056;27;20281;-73
2021/06/25 13:17:10;;;;;;;;;;;27.10;99.90;;;;;;5121755;27;19912;-75
2021/06/25 13:19:50;;;;;;;;;;;27.10;99.90;;;;;;5125097;27;20270;-75
2021/06/25 13:22:24;;;;;;;;;;;27.10;99.90;;;;;;5127151;27;19947;-74
2021/06/25 13:24:57;;;;;;;;;;;27.30;99.90;;;;;;5116389;27;19921;-74
2021/06/25 13:27:23;;;;;;;;;;;27.20;99.90;;;;;;5098494;28;19965;-73
2021/06/25 13:29:50;;;;;;;;;;;27.10;99.90;;;;;;5105868;27;19915;-74
2021/06/25 13:32:17;;;;;;;;;;;27.10;99.90;;;;;;5108631;28;19950;-73
2021/06/25 13:34:52;;;;;;;;;;;27.10;99.90;;;;;;5110061;28;19912;-72
2021/06/25 13:37:18;;;;;;;;;;;27.10;99.90;;;;;;5104031;27;19926;-74
2021/06/25 13:39:51;;;;;;;;;;;27.10;99.90;;;;;;5115692;27;19912;-74
2021/06/25 13:42:17;;;;;;;;;;;27.20;99.90;;;;;;5114487;27;20433;-73
2021/06/25 13:44:43;;;;;;;;;;;27.30;99.90;;;;;;5099254;28;19935;-70
2021/06/25 13:47:10;;;;;;;;;;;27.30;99.90;;;;;;5105126;28;20411;-73
2021/06/25 13:49:40;;;;;;;;;;;27.30;99.90;;;;;;5105084;28;19923;-76
2021/06/25 13:52:24;;;;;;;;;;;27.20;99.90;;;;;;5111618;27;19918;-73
2021/06/25 13:55:08;;;;;;;;;;;27.10;99.90;;;;;;5109027;27;20361;-75
2021/06/25 13:57:34;;;;;;;;;;;27.20;99.90;;;;;;5114885;27;20352;-71
2021/06/25 14:00:00;;;;;;;;;;;27.30;99.90;;;;;;5122523;27;19932;-72
2021/06/25 14:02:30;;;;;;;;;;;27.50;99.90;;;;;;5113930;27;19907;-73
2021/06/25 14:05:09;;;;;;;;;;;27.40;99.90;;;;;;5115125;27;19972;-72
2021/06/25 14:07:35;;;;;;;;;;;27.40;99.90;;;;;;5110586;27;20282;-68
2021/06/25 14:10:08;;;;;;;;;;;27.30;99.90;;;;;;5118626;27;19994;-72
2021/06/25 14:12:41;;;;;;;;;;;27.10;99.90;;;;;;5124712;27;19908;-73
2021/06/25 14:15:07;;;;;;;;;;;27.20;99.90;;;;;;5121681;27;19915;-70
2021/06/25 14:17:34;;;;;;;;;;;27.40;99.90;;;;;;5118835;27;19912;-69
2021/06/25 14:19:59;;;;;;;;;;;27.40;99.90;;;;;;5102984;27;19916;-70
2021/06/25 14:22:25;;;;;;;;;;;27.60;99.90;;;;;;5114019;27;19926;-70
2021/06/25 14:24:50;;;;;;;;;;;27.60;99.90;;;;;;5108495;27;19916;-69
2021/06/25 14:27:16;;;;;;;;;;;27.50;99.90;;;;;;5116422;27;19919;-70